Time;durP1;ratioP1;P1;durP2;ratioP2;P2;SDS_P1;SDS_P2;PMS_P1;PMS_P2;Temp;Humidity;BMP_temperature;BMP_pressure;BME280_temperature;BME280_humidity;BME280_pressure;Samples;Min_cycle;Max_cycle;Signal;HPM_P1;HPM_P2
2021/09/20 00:02:22;;;;;;;6.68;2.00;;;;;;;;;;5013412;28;20033;-44
2021/09/20 00:04:51;;;;;;;7.13;1.77;;;;;;;;;;5003404;28;20028;-43
2021/09/20 00:07:19;;;;;;;7.18;2.17;;;;;;;;;;5010060;28;20493;-40
2021/09/20 00:09:46;;;;;;;15.65;2.38;;;;;;;;;;5006957;28;20042;-40
2021/09/20 00:12:14;;;;;;;9.77;2.08;;;;;;;;;;5013147;28;20109;-43
2021/09/20 00:14:44;;;;;;;6.78;2.25;;;;;;;;;;4997157;28;20121;-41
2021/09/20 00:17:12;;;;;;;6.72;1.90;;;;;;;;;;5007907;28;20029;-40
2021/09/20 00:19:39;;;;;;;6.18;1.80;;;;;;;;;;4998672;28;20027;-41
2021/09/20 00:22:06;;;;;;;11.32;2.00;;;;;;;;;;4996200;28;20034;-44
2021/09/20 00:24:36;;;;;;;8.27;1.85;;;;;;;;;;4995973;28;20644;-40
2021/09/20 00:27:06;;;;;;;6.80;1.73;;;;;;;;;;5003839;28;20022;-41
2021/09/20 00:29:34;;;;;;;10.13;1.77;;;;;;;;;;5038920;22;20048;-39
2021/09/20 00:32:01;;;;;;;9.48;2.50;;;;;;;;;;5088679;28;20023;-39
2021/09/20 00:34:28;;;;;;;7.97;1.67;;;;;;;;;;5094050;28;21020;-38
2021/09/20 00:36:55;;;;;;;8.60;2.08;;;;;;;;;;5082483;28;20039;-41
2021/09/20 00:39:22;;;;;;;5.03;1.95;;;;;;;;;;5090393;28;20032;-40
2021/09/20 00:41:49;;;;;;;6.32;2.22;;;;;;;;;;5087986;28;20026;-39
2021/09/20 00:44:16;;;;;;;7.15;2.00;;;;;;;;;;5082102;28;20138;-39
2021/09/20 00:46:43;;;;;;;5.90;1.85;;;;;;;;;;5096284;28;20031;-41
2021/09/20 00:49:10;;;;;;;8.98;1.90;;;;;;;;;;5086060;28;20111;-41
2021/09/20 00:51:37;;;;;;;8.20;1.85;;;;;;;;;;5076772;28;20037;-41
2021/09/20 00:54:04;;;;;;;6.53;1.67;;;;;;;;;;5075596;28;20016;-37
2021/09/20 00:56:32;;;;;;;11.60;2.10;;;;;;;;;;5072140;28;20020;-38
2021/09/20 00:58:59;;;;;;;7.70;2.10;;;;;;;;;;5065780;28;20013;-37
2021/09/20 01:01:27;;;;;;;12.30;3.80;;;;;;;;;;5074372;28;20020;-37
2021/09/20 01:03:54;;;;;;;24.77;6.30;;;;;;;;;;5070751;28;20078;-37
2021/09/20 01:06:21;;;;;;;30.27;8.38;;;;;;;;;;5066351;28;20028;-37
2021/09/20 01:08:48;;;;;;;21.65;7.03;;;;;;;;;;5063828;28;20051;-37
2021/09/20 01:11:16;;;;;;;27.95;7.47;;;;;;;;;;5066461;28;20044;-37
2021/09/20 01:13:43;;;;;;;23.02;7.13;;;;;;;;;;5066088;28;20055;-37
2021/09/20 01:16:10;;;;;;;29.58;7.65;;;;;;;;;;5072172;28;20028;-37
2021/09/20 01:18:37;;;;;;;19.70;7.00;;;;;;;;;;5066791;28;20055;-38
2021/09/20 01:21:04;;;;;;;28.77;6.50;;;;;;;;;;5058666;28;20284;-37
2021/09/20 01:23:31;;;;;;;23.63;5.55;;;;;;;;;;5068125;28;20020;-36
2021/09/20 01:25:58;;;;;;;25.70;5.75;;;;;;;;;;5075918;28;20024;-37
2021/09/20 01:28:25;;;;;;;16.10;5.03;;;;;;;;;;5065973;28;20025;-37
2021/09/20 01:30:52;;;;;;;19.60;6.32;;;;;;;;;;5062697;28;20051;-36
2021/09/20 01:33:21;;;;;;;20.65;6.20;;;;;;;;;;5067341;28;20028;-38
2021/09/20 01:35:49;;;;;;;18.08;4.60;;;;;;;;;;5081939;28;20024;-36
2021/09/20 01:38:16;;;;;;;19.48;5.25;;;;;;;;;;5080831;28;20096;-36
2021/09/20 01:40:43;;;;;;;31.17;5.53;;;;;;;;;;5079774;28;20023;-37
2021/09/20 01:43:11;;;;;;;29.88;4.63;;;;;;;;;;5078393;28;20546;-41
2021/09/20 01:45:38;;;;;;;19.02;5.13;;;;;;;;;;5094238;28;20024;-38
2021/09/20 01:48:06;;;;;;;17.52;4.30;;;;;;;;;;5081338;28;20028;-37
2021/09/20 01:50:33;;;;;;;20.48;4.38;;;;;;;;;;5086515;28;20040;-37
2021/09/20 01:53:00;;;;;;;15.00;4.63;;;;;;;;;;5081215;28;20020;-37
2021/09/20 01:55:27;;;;;;;14.73;3.70;;;;;;;;;;5081000;28;20091;-37
2021/09/20 01:57:54;;;;;;;14.68;3.70;;;;;;;;;;5070865;28;20028;-38
2021/09/20 02:00:21;;;;;;;16.13;3.38;;;;;;;;;;5069728;28;20468;-39
2021/09/20 02:02:48;;;;;;;11.70;3.05;;;;;;;;;;5071555;28;20086;-40
2021/09/20 02:05:15;;;;;;;15.18;3.60;;;;;;;;;;5071103;28;20069;-39
2021/09/20 02:07:43;;;;;;;15.20;3.63;;;;;;;;;;5071658;28;20024;-39
2021/09/20 02:10:11;;;;;;;14.20;3.08;;;;;;;;;;5058525;28;20147;-37
2021/09/20 02:12:38;;;;;;;18.63;3.58;;;;;;;;;;5051367;28;20017;-40
2021/09/20 02:15:06;;;;;;;14.98;2.90;;;;;;;;;;5053559;28;20396;-39
2021/09/20 02:17:34;;;;;;;14.43;3.50;;;;;;;;;;5052706;28;20495;-39
2021/09/20 02:20:01;;;;;;;13.82;3.10;;;;;;;;;;5049980;28;20372;-38
2021/09/20 02:22:28;;;;;;;15.68;3.38;;;;;;;;;;5050758;28;20032;-40
2021/09/20 02:24:55;;;;;;;10.18;3.40;;;;;;;;;;5051821;28;20051;-44
2021/09/20 02:27:22;;;;;;;14.02;3.22;;;;;;;;;;5051984;28;20028;-40
2021/09/20 02:29:50;;;;;;;19.75;3.72;;;;;;;;;;5059407;28;20063;-39
2021/09/20 02:32:17;;;;;;;17.13;3.58;;;;;;;;;;5071499;28;20017;-41
2021/09/20 02:34:44;;;;;;;21.77;4.25;;;;;;;;;;5059722;28;20028;-38
2021/09/20 02:37:12;;;;;;;12.63;2.83;;;;;;;;;;5066472;28;20020;-38
2021/09/20 02:39:39;;;;;;;11.93;2.65;;;;;;;;;;5060980;28;20025;-38
2021/09/20 02:42:06;;;;;;;12.02;2.88;;;;;;;;;;5071245;28;20021;-37
2021/09/20 02:44:35;;;;;;;12.40;3.58;;;;;;;;;;5069024;28;20048;-38
2021/09/20 02:47:02;;;;;;;16.52;2.92;;;;;;;;;;5069876;28;20028;-39
2021/09/20 02:49:29;;;;;;;18.13;3.45;;;;;;;;;;5061299;28;20082;-37
2021/09/20 02:51:56;;;;;;;14.98;2.80;;;;;;;;;;5069269;28;20044;-38
2021/09/20 02:54:23;;;;;;;11.93;2.70;;;;;;;;;;5070143;28;20017;-39
2021/09/20 02:56:50;;;;;;;10.60;2.88;;;;;;;;;;5071339;28;20078;-39
2021/09/20 02:59:17;;;;;;;12.88;3.40;;;;;;;;;;5066227;28;20021;-40
2021/09/20 03:01:44;;;;;;;16.35;3.05;;;;;;;;;;5069676;28;20017;-37
2021/09/20 03:04:11;;;;;;;9.57;3.22;;;;;;;;;;5071813;28;20021;-41
2021/09/20 03:06:38;;;;;;;14.50;2.97;;;;;;;;;;5070109;28;20031;-38
2021/09/20 03:09:05;;;;;;;13.63;2.67;;;;;;;;;;5071367;28;20032;-38
2021/09/20 03:11:32;;;;;;;9.48;2.53;;;;;;;;;;5050464;28;20059;-38
2021/09/20 03:13:59;;;;;;;9.68;3.22;;;;;;;;;;5050559;28;20522;-39
2021/09/20 03:16:26;;;;;;;9.63;2.50;;;;;;;;;;5051396;28;20036;-38
2021/09/20 03:18:53;;;;;;;10.02;2.30;;;;;;;;;;5051129;28;20416;-38
2021/09/20 03:21:23;;;;;;;9.68;2.22;;;;;;;;;;5063338;28;20036;-38
2021/09/20 03:23:51;;;;;;;11.55;2.55;;;;;;;;;;5075724;28;20029;-38
2021/09/20 03:26:18;;;;;;;9.07;2.63;;;;;;;;;;5075597;28;20048;-40
2021/09/20 03:28:45;;;;;;;12.00;2.20;;;;;;;;;;5074969;28;20032;-38
2021/09/20 03:31:12;;;;;;;10.13;2.38;;;;;;;;;;5059999;28;20131;-38
2021/09/20 03:33:39;;;;;;;7.95;1.92;;;;;;;;;;5055756;28;20025;-39
2021/09/20 03:36:06;;;;;;;11.25;2.63;;;;;;;;;;5055095;28;20558;-40
2021/09/20 03:38:33;;;;;;;6.22;2.17;;;;;;;;;;5054680;28;20358;-39
2021/09/20 03:41:00;;;;;;;11.10;2.38;;;;;;;;;;5053839;28;20029;-39
2021/09/20 03:43:27;;;;;;;9.20;2.60;;;;;;;;;;5054213;28;20021;-38
2021/09/20 03:45:54;;;;;;;9.80;2.53;;;;;;;;;;5055264;28;20436;-41
2021/09/20 03:48:21;;;;;;;8.80;2.35;;;;;;;;;;5054578;28;20469;-38
2021/09/20 03:50:48;;;;;;;6.88;2.38;;;;;;;;;;5053115;28;20045;-40
2021/09/20 03:53:15;;;;;;;8.38;1.95;;;;;;;;;;5055152;28;20108;-38
2021/09/20 03:55:42;;;;;;;5.28;2.10;;;;;;;;;;5055194;28;20507;-40
2021/09/20 03:58:09;;;;;;;6.78;2.30;;;;;;;;;;5054387;28;20036;-38
2021/09/20 04:00:36;;;;;;;6.78;2.22;;;;;;;;;;5054260;28;20087;-39
2021/09/20 04:03:03;;;;;;;10.23;2.28;;;;;;;;;;5053024;28;20110;-40
2021/09/20 04:05:30;;;;;;;9.00;2.30;;;;;;;;;;5054926;28;20021;-39
2021/09/20 04:07:58;;;;;;;5.88;2.13;;;;;;;;;;5054605;28;20021;-39
2021/09/20 04:10:25;;;;;;;5.00;1.80;;;;;;;;;;5054156;28;20047;-38
2021/09/20 04:12:52;;;;;;;5.57;2.05;;;;;;;;;;5052797;28;20021;-38
2021/09/20 04:15:19;;;;;;;7.13;2.00;;;;;;;;;;5054935;28;20112;-38
2021/09/20 04:17:46;;;;;;;6.78;2.17;;;;;;;;;;5054724;28;20052;-40
2021/09/20 04:20:14;;;;;;;4.65;1.92;;;;;;;;;;5053729;28;20021;-38
2021/09/20 04:22:41;;;;;;;5.13;1.80;;;;;;;;;;5051816;28;20025;-39
2021/09/20 04:25:08;;;;;;;5.93;2.20;;;;;;;;;;5055081;28;20040;-40
2021/09/20 04:27:35;;;;;;;6.60;1.60;;;;;;;;;;5070993;28;20028;-45
2021/09/20 04:30:03;;;;;;;10.73;2.20;;;;;;;;;;5053397;28;20045;-39
2021/09/20 04:32:30;;;;;;;4.63;1.70;;;;;;;;;;5055747;28;20020;-38
2021/09/20 04:34:57;;;;;;;5.63;2.10;;;;;;;;;;5074473;28;20028;-46
2021/09/20 04:37:24;;;;;;;5.60;2.13;;;;;;;;;;5072906;28;20027;-40
2021/09/20 04:39:51;;;;;;;4.47;1.90;;;;;;;;;;5073271;28;20017;-39
2021/09/20 04:42:18;;;;;;;5.35;1.80;;;;;;;;;;5065812;28;20029;-38
2021/09/20 04:44:45;;;;;;;3.92;1.80;;;;;;;;;;5074344;28;20025;-39
2021/09/20 04:47:12;;;;;;;4.43;1.70;;;;;;;;;;5074185;28;20054;-38
2021/09/20 04:49:39;;;;;;;5.68;2.20;;;;;;;;;;5073527;28;20020;-38
2021/09/20 04:52:06;;;;;;;6.18;1.90;;;;;;;;;;5066866;28;20076;-39
2021/09/20 04:54:33;;;;;;;8.68;1.83;;;;;;;;;;5053742;28;20465;-37
2021/09/20 04:57:00;;;;;;;6.30;1.83;;;;;;;;;;5054272;28;20373;-37
2021/09/20 04:59:27;;;;;;;3.45;1.45;;;;;;;;;;5053693;28;20372;-38
2021/09/20 05:01:54;;;;;;;8.40;1.80;;;;;;;;;;5052456;28;20017;-38
2021/09/20 05:04:21;;;;;;;4.88;1.80;;;;;;;;;;5067758;28;20017;-38
2021/09/20 05:06:48;;;;;;;5.72;1.67;;;;;;;;;;5073848;28;20472;-38
2021/09/20 05:09:15;;;;;;;4.25;1.60;;;;;;;;;;5073325;28;20464;-38
2021/09/20 05:11:42;;;;;;;3.78;1.60;;;;;;;;;;5073305;28;20029;-38
2021/09/20 05:14:09;;;;;;;7.60;1.60;;;;;;;;;;5054320;28;20098;-38
2021/09/20 05:16:36;;;;;;;7.13;1.63;;;;;;;;;;5053773;28;20465;-38
2021/09/20 05:19:03;;;;;;;3.53;1.40;;;;;;;;;;5052175;28;20035;-38
2021/09/20 05:21:30;;;;;;;3.10;1.40;;;;;;;;;;5052713;28;20469;-38
2021/09/20 05:23:57;;;;;;;3.47;1.58;;;;;;;;;;5052217;28;20155;-39
2021/09/20 05:26:24;;;;;;;3.50;1.50;;;;;;;;;;5053684;28;20024;-37
2021/09/20 05:28:51;;;;;;;5.45;1.58;;;;;;;;;;5053246;28;20025;-38
2021/09/20 05:31:19;;;;;;;3.85;1.90;;;;;;;;;;5052413;28;20078;-39
2021/09/20 05:33:46;;;;;;;4.90;1.65;;;;;;;;;;5055601;28;20104;-39
2021/09/20 05:36:13;;;;;;;4.60;1.55;;;;;;;;;;5073107;28;20032;-38
2021/09/20 05:38:40;;;;;;;3.10;1.38;;;;;;;;;;5073014;28;20055;-39
2021/09/20 05:41:07;;;;;;;7.22;1.60;;;;;;;;;;5071757;28;20028;-38
2021/09/20 05:43:34;;;;;;;3.95;1.45;;;;;;;;;;5064321;28;20031;-38
2021/09/20 05:46:01;;;;;;;6.78;1.40;;;;;;;;;;5072854;28;20516;-37
2021/09/20 05:48:28;;;;;;;3.90;1.70;;;;;;;;;;5073101;28;20082;-39
2021/09/20 05:50:55;;;;;;;2.58;1.20;;;;;;;;;;5072596;28;20044;-38
2021/09/20 05:53:22;;;;;;;2.10;1.20;;;;;;;;;;5067601;28;20111;-37
2021/09/20 05:55:49;;;;;;;5.28;1.67;;;;;;;;;;5070037;28;20103;-37
2021/09/20 05:58:16;;;;;;;3.50;1.40;;;;;;;;;;5072843;28;20056;-37
2021/09/20 06:00:43;;;;;;;3.10;1.55;;;;;;;;;;5072677;28;20039;-37
2021/09/20 06:03:11;;;;;;;3.13;1.63;;;;;;;;;;5072366;28;20029;-38
2021/09/20 06:05:38;;;;;;;3.22;1.52;;;;;;;;;;5052154;28;20028;-37
2021/09/20 06:08:09;;;;;;;2.63;1.30;;;;;;;;;;5052653;28;20025;-38
2021/09/20 06:10:37;;;;;;;3.03;1.40;;;;;;;;;;5052573;28;20421;-37
2021/09/20 06:13:06;;;;;;;3.78;1.60;;;;;;;;;;5052089;28;20074;-38
2021/09/20 06:15:37;;;;;;;7.35;1.23;;;;;;;;;;5059486;28;20037;-38
2021/09/20 06:18:05;;;;;;;1.88;1.20;;;;;;;;;;5052129;28;20373;-38
2021/09/20 06:20:32;;;;;;;3.60;1.40;;;;;;;;;;5052078;28;20021;-38
2021/09/20 06:22:59;;;;;;;3.47;1.30;;;;;;;;;;5051907;28;20107;-37
2021/09/20 06:25:26;;;;;;;3.22;1.23;;;;;;;;;;5055748;28;20017;-37
2021/09/20 06:27:53;;;;;;;2.90;1.20;;;;;;;;;;5072267;28;20029;-38
2021/09/20 06:30:21;;;;;;;2.50;1.40;;;;;;;;;;5071855;28;20049;-38
2021/09/20 06:32:48;;;;;;;4.40;1.38;;;;;;;;;;5072005;28;20028;-37
2021/09/20 06:35:15;;;;;;;3.58;1.58;;;;;;;;;;5060474;28;20029;-37
2021/09/20 06:37:42;;;;;;;1.95;1.00;;;;;;;;;;5052213;28;20029;-39
2021/09/20 06:40:10;;;;;;;2.28;1.10;;;;;;;;;;5052118;28;20025;-38
2021/09/20 06:42:37;;;;;;;2.88;1.50;;;;;;;;;;5052133;28;20017;-37
2021/09/20 06:45:05;;;;;;;3.15;1.30;;;;;;;;;;5048941;28;20069;-37
2021/09/20 06:47:33;;;;;;;2.10;1.02;;;;;;;;;;5052180;28;20079;-37
2021/09/20 06:50:00;;;;;;;2.13;1.10;;;;;;;;;;5051744;28;20025;-37
2021/09/20 06:52:27;;;;;;;2.55;1.20;;;;;;;;;;5051815;28;20033;-37
2021/09/20 06:54:54;;;;;;;3.63;1.20;;;;;;;;;;5050054;28;20035;-37
2021/09/20 06:57:21;;;;;;;3.63;1.30;;;;;;;;;;5050923;28;20484;-37
2021/09/20 06:59:48;;;;;;;3.63;1.08;;;;;;;;;;5052155;28;20492;-38
2021/09/20 07:02:15;;;;;;;1.52;0.90;;;;;;;;;;5051802;28;20427;-37
2021/09/20 07:04:42;;;;;;;2.28;1.25;;;;;;;;;;5051118;28;20020;-37
2021/09/20 07:07:12;;;;;;;3.20;1.23;;;;;;;;;;5064545;28;20040;-37
2021/09/20 07:09:40;;;;;;;2.42;1.27;;;;;;;;;;5071906;28;20028;-38
2021/09/20 07:12:07;;;;;;;1.95;1.10;;;;;;;;;;5071780;28;20029;-38
2021/09/20 07:14:34;;;;;;;3.38;1.30;;;;;;;;;;5071497;28;20017;-39
2021/09/20 07:17:01;;;;;;;3.13;1.38;;;;;;;;;;5054436;28;20025;-38
2021/09/20 07:19:28;;;;;;;2.17;1.05;;;;;;;;;;5051693;28;20806;-37
2021/09/20 07:21:55;;;;;;;3.33;1.27;;;;;;;;;;5051723;28;20420;-37
2021/09/20 07:24:23;;;;;;;3.13;1.30;;;;;;;;;;5051539;28;20021;-37
2021/09/20 07:26:50;;;;;;;1.88;1.23;;;;;;;;;;5058070;28;20020;-37
2021/09/20 07:29:17;;;;;;;2.42;1.00;;;;;;;;;;5071650;28;20127;-37
2021/09/20 07:31:44;;;;;;;1.77;1.10;;;;;;;;;;5071718;28;20043;-38
2021/09/20 07:34:11;;;;;;;2.58;0.90;;;;;;;;;;5070915;28;20424;-37
2021/09/20 07:36:38;;;;;;;1.60;1.10;;;;;;;;;;5064871;28;20104;-37
2021/09/20 07:39:05;;;;;;;3.95;1.20;;;;;;;;;;5071757;28;20025;-37
2021/09/20 07:41:32;;;;;;;3.25;1.15;;;;;;;;;;5071682;28;20021;-38
2021/09/20 07:43:59;;;;;;;5.38;1.30;;;;;;;;;;5071286;28;20020;-37
2021/09/20 07:46:26;;;;;;;2.58;1.05;;;;;;;;;;5063505;28;20040;-37
2021/09/20 07:48:54;;;;;;;2.40;1.02;;;;;;;;;;5069934;28;20059;-38
2021/09/20 07:51:21;;;;;;;2.53;0.98;;;;;;;;;;5071684;28;20032;-38
2021/09/20 07:53:49;;;;;;;3.00;1.00;;;;;;;;;;5071360;28;20108;-38
2021/09/20 07:56:15;;;;;;;4.10;1.05;;;;;;;;;;5069208;28;20484;-38
2021/09/20 07:58:43;;;;;;;1.45;1.00;;;;;;;;;;5064804;28;20472;-41
2021/09/20 08:01:09;;;;;;;2.08;1.10;;;;;;;;;;5071575;28;20021;-37
2021/09/20 08:03:36;;;;;;;2.08;1.02;;;;;;;;;;5071299;28;20071;-37
2021/09/20 08:06:06;;;;;;;2.88;0.85;;;;;;;;;;5070785;28;20042;-37
2021/09/20 08:08:33;;;;;;;5.38;1.50;;;;;;;;;;5067300;28;20020;-37
2021/09/20 08:11:00;;;;;;;2.67;1.00;;;;;;;;;;5074982;28;20029;-37
2021/09/20 08:13:27;;;;;;;2.08;1.20;;;;;;;;;;5075118;28;20479;-38
2021/09/20 08:15:54;;;;;;;2.25;1.08;;;;;;;;;;5074296;28;20029;-38
2021/09/20 08:18:21;;;;;;;1.63;0.80;;;;;;;;;;5067394;28;20077;-38
2021/09/20 08:20:49;;;;;;;2.60;1.05;;;;;;;;;;5074870;28;20035;-38
2021/09/20 08:23:16;;;;;;;4.90;1.10;;;;;;;;;;5074523;28;20396;-38
2021/09/20 08:25:43;;;;;;;2.88;0.82;;;;;;;;;;5074333;28;20069;-38
2021/09/20 08:28:11;;;;;;;2.42;1.20;;;;;;;;;;5067710;28;20024;-36
2021/09/20 08:30:38;;;;;;;3.83;1.10;;;;;;;;;;5074294;28;20048;-38
2021/09/20 08:33:05;;;;;;;1.73;1.15;;;;;;;;;;5074419;28;20033;-38
2021/09/20 08:35:32;;;;;;;2.50;0.88;;;;;;;;;;5074206;28;20028;-38
2021/09/20 08:37:59;;;;;;;3.10;1.30;;;;;;;;;;5065013;28;20615;-37
2021/09/20 08:40:27;;;;;;;4.30;1.10;;;;;;;;;;5052885;28;20361;-39
2021/09/20 08:42:55;;;;;;;1.77;0.90;;;;;;;;;;5054423;28;20103;-38
2021/09/20 08:45:24;;;;;;;1.90;0.90;;;;;;;;;;5054029;28;20025;-38
2021/09/20 08:47:52;;;;;;;1.77;0.90;;;;;;;;;;5051153;28;20037;-38
2021/09/20 08:50:21;;;;;;;4.82;0.90;;;;;;;;;;5072638;28;20416;-38
2021/09/20 08:52:48;;;;;;;4.20;0.90;;;;;;;;;;5074304;28;20463;-37
2021/09/20 08:55:15;;;;;;;1.98;1.13;;;;;;;;;;5073849;28;20024;-37
2021/09/20 08:57:43;;;;;;;3.35;0.90;;;;;;;;;;5072607;28;20469;-38
2021/09/20 09:00:10;;;;;;;2.97;0.90;;;;;;;;;;5068589;28;20029;-37
2021/09/20 09:02:37;;;;;;;1.20;0.88;;;;;;;;;;5073903;28;20021;-38
2021/09/20 09:05:14;;;;;;;1.92;0.85;;;;;;;;;;5073550;28;20419;-38
2021/09/20 09:07:44;;;;;;;2.53;1.00;;;;;;;;;;5073698;28;20032;-40
2021/09/20 09:10:12;;;;;;;3.47;0.93;;;;;;;;;;5066710;28;20028;-39
2021/09/20 09:12:39;;;;;;;2.53;1.02;;;;;;;;;;5073808;28;20052;-41
2021/09/20 09:15:08;;;;;;;3.10;1.00;;;;;;;;;;5073596;28;20733;-38
2021/09/20 09:17:39;;;;;;;4.38;1.20;;;;;;;;;;5072112;28;20423;-40
2021/09/20 09:20:26;;;;;;;3.47;0.73;;;;;;;;;;5055099;28;20013;-39
2021/09/20 09:22:53;;;;;;;3.80;0.90;;;;;;;;;;5053615;28;20156;-39
2021/09/20 09:25:20;;;;;;;2.63;0.80;;;;;;;;;;5052786;28;20013;-38
2021/09/20 09:27:48;;;;;;;1.42;0.60;;;;;;;;;;5053396;28;20053;-38
2021/09/20 09:30:15;;;;;;;2.35;0.90;;;;;;;;;;5051413;28;20053;-40
2021/09/20 09:32:43;;;;;;;4.53;0.90;;;;;;;;;;5066662;28;20409;-40
2021/09/20 09:35:11;;;;;;;0.98;0.77;;;;;;;;;;5072984;28;20027;-39
2021/09/20 09:37:39;;;;;;;1.85;0.90;;;;;;;;;;5069719;28;20028;-37
2021/09/20 09:40:06;;;;;;;6.30;1.20;;;;;;;;;;5056009;28;20032;-39
2021/09/20 09:42:33;;;;;;;3.80;0.80;;;;;;;;;;5072328;28;20024;-39
2021/09/20 09:45:14;;;;;;;1.55;1.02;;;;;;;;;;5072415;28;20385;-38
2021/09/20 09:47:41;;;;;;;2.20;0.90;;;;;;;;;;5072088;28;20023;-38
2021/09/20 09:50:18;;;;;;;2.03;1.02;;;;;;;;;;5064100;28;20135;-39
2021/09/20 09:52:47;;;;;;;1.30;0.82;;;;;;;;;;5072213;28;20104;-40
2021/09/20 09:55:14;;;;;;;6.03;1.08;;;;;;;;;;5072259;28;20028;-40
2021/09/20 09:57:42;;;;;;;7.40;0.90;;;;;;;;;;5071823;28;20017;-40
2021/09/20 10:00:11;;;;;;;1.42;0.88;;;;;;;;;;5064939;28;20062;-39
2021/09/20 10:02:39;;;;;;;1.88;0.68;;;;;;;;;;5072837;28;20016;-39
2021/09/20 10:05:14;;;;;;;1.40;0.90;;;;;;;;;;5072660;28;20073;-38
2021/09/20 10:07:42;;;;;;;2.97;0.95;;;;;;;;;;5072393;28;20028;-37
2021/09/20 10:10:11;;;;;;;5.18;0.90;;;;;;;;;;5063823;28;20047;-37
2021/09/20 10:12:39;;;;;;;2.15;1.10;;;;;;;;;;5072762;28;20024;-38
2021/09/20 10:15:07;;;;;;;2.88;0.85;;;;;;;;;;5072662;28;20481;-38
2021/09/20 10:17:35;;;;;;;3.03;0.80;;;;;;;;;;5072107;28;20150;-38
2021/09/20 10:20:02;;;;;;;2.20;1.02;;;;;;;;;;5065031;28;20025;-38
2021/09/20 10:22:29;;;;;;;4.65;1.00;;;;;;;;;;5070017;28;20020;-38
2021/09/20 10:24:58;;;;;;;1.35;0.90;;;;;;;;;;5072486;28;20013;-37
2021/09/20 10:27:26;;;;;;;1.73;0.93;;;;;;;;;;5072314;28;20067;-37
2021/09/20 10:30:01;;;;;;;2.65;0.98;;;;;;;;;;5070649;28;20452;-38
2021/09/20 10:32:28;;;;;;;4.32;1.38;;;;;;;;;;5051627;28;20025;-38
2021/09/20 10:35:13;;;;;;;2.47;0.80;;;;;;;;;;5052008;28;20491;-38
2021/09/20 10:37:40;;;;;;;1.60;0.82;;;;;;;;;;5051992;28;20029;-38
2021/09/20 10:40:11;;;;;;;1.10;0.80;;;;;;;;;;5051443;28;20028;-38
2021/09/20 10:42:46;;;;;;;2.17;0.82;;;;;;;;;;5067186;28;20017;-37
2021/09/20 10:45:31;;;;;;;3.03;0.93;;;;;;;;;;5071911;28;20032;-40
2021/09/20 10:48:02;;;;;;;1.60;0.80;;;;;;;;;;5071639;28;20021;-38
2021/09/20 10:50:46;;;;;;;1.67;0.77;;;;;;;;;;5070068;28;20083;-37
2021/09/20 10:53:22;;;;;;;3.78;0.85;;;;;;;;;;5070337;28;20025;-37
2021/09/20 10:56:06;;;;;;;2.47;0.80;;;;;;;;;;5072366;28;20052;-38
2021/09/20 10:58:42;;;;;;;1.77;0.75;;;;;;;;;;5070606;28;20486;-38
2021/09/20 11:01:12;;;;;;;4.65;0.90;;;;;;;;;;5065572;28;20032;-38
2021/09/20 11:03:43;;;;;;;0.90;0.70;;;;;;;;;;5051437;28;20043;-38
2021/09/20 11:06:28;;;;;;;1.48;0.80;;;;;;;;;;5051500;28;20028;-38
2021/09/20 11:08:56;;;;;;;4.10;0.95;;;;;;;;;;5061334;28;20369;-39
2021/09/20 11:11:39;;;;;;;4.57;1.05;;;;;;;;;;5064694;28;20033;-39
2021/09/20 11:14:07;;;;;;;2.28;1.00;;;;;;;;;;5068757;28;20032;-39
2021/09/20 11:16:46;;;;;;;1.60;0.90;;;;;;;;;;5070121;28;20540;-38
2021/09/20 11:19:29;;;;;;;3.45;1.10;;;;;;;;;;5070151;28;20020;-36
2021/09/20 11:22:05;;;;;;;0.80;0.70;;;;;;;;;;5060423;28;20117;-37
2021/09/20 11:24:39;;;;;;;3.83;0.98;;;;;;;;;;5069575;28;20040;-37
2021/09/20 11:27:07;;;;;;;2.15;0.70;;;;;;;;;;5071270;28;20021;-38
2021/09/20 11:29:34;;;;;;;1.75;1.00;;;;;;;;;;5070827;28;20056;-38
2021/09/20 11:32:04;;;;;;;1.50;0.82;;;;;;;;;;5062335;28;20641;-42
2021/09/20 11:34:33;;;;;;;3.10;0.80;;;;;;;;;;5063874;28;20107;-37
2021/09/20 11:37:11;;;;;;;3.03;1.33;;;;;;;;;;5070879;28;20388;-37
2021/09/20 11:39:48;;;;;;;3.67;0.98;;;;;;;;;;5071024;28;20027;-38
2021/09/20 11:42:16;;;;;;;1.85;1.00;;;;;;;;;;5064452;28;20036;-35
2021/09/20 11:44:54;;;;;;;5.78;0.80;;;;;;;;;;5070909;28;20476;-40
2021/09/20 11:47:22;;;;;;;2.38;0.82;;;;;;;;;;5073935;28;20017;-37
2021/09/20 11:49:53;;;;;;;2.25;0.85;;;;;;;;;;5074106;28;20039;-37
2021/09/20 11:52:31;;;;;;;3.88;1.10;;;;;;;;;;5068726;28;20035;-37
2021/09/20 11:54:58;;;;;;;1.65;0.90;;;;;;;;;;5053926;28;20028;-37
2021/09/20 11:57:25;;;;;;;6.00;1.20;;;;;;;;;;5072945;28;20039;-38
2021/09/20 11:59:57;;;;;;;1.63;1.00;;;;;;;;;;5074116;28;20047;-39
2021/09/20 12:02:31;;;;;;;1.27;0.77;;;;;;;;;;5069220;28;20044;-37
2021/09/20 12:04:58;;;;;;;5.22;1.00;;;;;;;;;;5062751;28;20166;-39
2021/09/20 12:07:26;;;;;;;3.33;1.02;;;;;;;;;;5072476;28;20373;-38
2021/09/20 12:09:54;;;;;;;1.33;0.80;;;;;;;;;;5073317;28;20431;-36
2021/09/20 12:12:21;;;;;;;3.58;0.95;;;;;;;;;;5071986;28;20028;-36
2021/09/20 12:14:57;;;;;;;1.65;0.80;;;;;;;;;;5067138;28;20024;-36
2021/09/20 12:17:24;;;;;;;2.75;0.73;;;;;;;;;;5073134;28;20025;-36
2021/09/20 12:19:53;;;;;;;5.13;1.00;;;;;;;;;;5072099;28;20105;-37
2021/09/20 12:22:20;;;;;;;2.40;0.88;;;;;;;;;;5070112;28;20032;-37
2021/09/20 12:24:47;;;;;;;2.58;0.95;;;;;;;;;;5066734;28;20028;-37
2021/09/20 12:27:14;;;;;;;3.25;1.00;;;;;;;;;;5073699;28;20030;-38
2021/09/20 12:29:41;;;;;;;3.70;1.00;;;;;;;;;;5072509;28;20055;-40
2021/09/20 12:32:08;;;;;;;3.85;1.25;;;;;;;;;;5073672;28;20100;-37
2021/09/20 12:34:35;;;;;;;2.80;0.95;;;;;;;;;;5065695;28;20069;-36
2021/09/20 12:37:03;;;;;;;2.60;0.90;;;;;;;;;;5073935;28;20036;-37
2021/09/20 12:39:34;;;;;;;3.60;1.08;;;;;;;;;;5073506;28;20484;-36
2021/09/20 12:42:11;;;;;;;5.20;0.98;;;;;;;;;;5072091;28;20020;-37
2021/09/20 12:44:38;;;;;;;2.83;1.23;;;;;;;;;;5066313;28;20488;-36
2021/09/20 12:47:16;;;;;;;6.45;1.10;;;;;;;;;;5073463;28;20024;-38
2021/09/20 12:49:55;;;;;;;2.13;0.93;;;;;;;;;;5073657;28;20488;-37
2021/09/20 12:52:25;;;;;;;3.88;0.90;;;;;;;;;;5073899;28;20801;-37
2021/09/20 12:54:53;;;;;;;5.47;1.10;;;;;;;;;;5064578;28;20066;-36
2021/09/20 12:57:23;;;;;;;3.70;1.10;;;;;;;;;;5065670;28;20376;-36
2021/09/20 13:00:07;;;;;;;3.30;1.17;;;;;;;;;;5053754;28;20029;-37
2021/09/20 13:02:39;;;;;;;5.80;1.23;;;;;;;;;;5062228;28;20508;-37
2021/09/20 13:05:07;;;;;;;1.85;0.80;;;;;;;;;;5062607;28;20035;-40
2021/09/20 13:07:34;;;;;;;1.13;0.88;;;;;;;;;;5073195;28;20016;-40
2021/09/20 13:10:04;;;;;;;4.95;1.27;;;;;;;;;;5058244;28;20021;-39
2021/09/20 13:12:35;;;;;;;2.58;1.00;;;;;;;;;;5072371;28;20048;-38
2021/09/20 13:15:05;;;;;;;6.47;0.98;;;;;;;;;;5064558;28;20070;-38
2021/09/20 13:17:33;;;;;;;4.68;1.02;;;;;;;;;;5072629;28;20042;-36
2021/09/20 13:20:03;;;;;;;3.17;0.90;;;;;;;;;;5069110;28;20024;-36
2021/09/20 13:22:33;;;;;;;3.92;1.10;;;;;;;;;;5063333;28;20062;-36
2021/09/20 13:25:20;;;;;;;8.00;1.33;;;;;;;;;;5058863;28;20079;-41
2021/09/20 13:27:47;;;;;;;7.50;1.60;;;;;;;;;;5064623;28;20036;-40
2021/09/20 13:30:18;;;;;;;6.53;1.08;;;;;;;;;;5066353;28;20056;-37
2021/09/20 13:32:46;;;;;;;2.95;0.98;;;;;;;;;;5063280;28;20519;-38
2021/09/20 13:35:27;;;;;;;8.75;1.15;;;;;;;;;;5059750;28;20055;-38
2021/09/20 13:37:55;;;;;;;2.83;1.10;;;;;;;;;;5060565;28;20024;-37
2021/09/20 13:40:22;;;;;;;4.97;1.20;;;;;;;;;;5059180;28;20052;-36
2021/09/20 13:42:50;;;;;;;6.07;0.90;;;;;;;;;;5057254;28;20043;-38
2021/09/20 13:45:17;;;;;;;3.78;1.10;;;;;;;;;;5054308;28;20531;-44
2021/09/20 13:47:44;;;;;;;6.72;1.35;;;;;;;;;;5058137;28;20033;-38
2021/09/20 13:50:12;;;;;;;3.90;1.30;;;;;;;;;;5066287;28;20115;-46
2021/09/20 13:52:39;;;;;;;6.75;1.10;;;;;;;;;;5066526;28;20032;-51
2021/09/20 13:55:07;;;;;;;4.93;1.05;;;;;;;;;;5064747;28;20119;-44
2021/09/20 13:57:34;;;;;;;3.22;1.10;;;;;;;;;;5060952;28;20036;-47
2021/09/20 14:00:01;;;;;;;3.42;1.00;;;;;;;;;;5050630;28;20040;-48
2021/09/20 14:02:29;;;;;;;6.13;1.20;;;;;;;;;;5064800;28;20556;-44
2021/09/20 14:04:56;;;;;;;5.30;1.20;;;;;;;;;;5059574;28;20025;-43
2021/09/20 14:07:23;;;;;;;5.78;0.85;;;;;;;;;;5054946;28;20096;-44
2021/09/20 14:09:50;;;;;;;6.50;1.27;;;;;;;;;;5062963;28;20493;-42
2021/09/20 14:12:17;;;;;;;7.10;1.10;;;;;;;;;;5073319;28;20499;-44
2021/09/20 14:14:44;;;;;;;6.25;0.95;;;;;;;;;;5070276;28;20016;-45
2021/09/20 14:17:11;;;;;;;10.30;0.93;;;;;;;;;;5054788;28;20036;-43
2021/09/20 14:19:40;;;;;;;11.68;0.85;;;;;;;;;;5067500;28;20024;-41
2021/09/20 14:22:09;;;;;;;4.03;1.00;;;;;;;;;;5065538;28;20020;-42
2021/09/20 14:24:36;;;;;;;3.42;1.13;;;;;;;;;;5063966;28;20024;-45
2021/09/20 14:27:04;;;;;;;6.30;1.02;;;;;;;;;;5073527;28;20028;-47
2021/09/20 14:29:33;;;;;;;7.50;1.70;;;;;;;;;;5067321;28;20573;-43
2021/09/20 14:32:00;;;;;;;5.68;0.90;;;;;;;;;;5062324;28;20067;-47
2021/09/20 14:34:27;;;;;;;4.25;0.80;;;;;;;;;;5074971;28;20036;-46
2021/09/20 14:36:54;;;;;;;2.70;0.82;;;;;;;;;;5068821;28;20053;-44
2021/09/20 14:39:22;;;;;;;5.75;1.10;;;;;;;;;;5069038;28;20055;-45
2021/09/20 14:41:49;;;;;;;3.65;1.00;;;;;;;;;;5064547;28;20025;-46
2021/09/20 14:44:16;;;;;;;4.93;0.88;;;;;;;;;;5066100;28;20074;-47
2021/09/20 14:46:43;;;;;;;5.35;0.98;;;;;;;;;;5069297;28;20028;-47
2021/09/20 14:49:10;;;;;;;8.45;1.38;;;;;;;;;;5072045;28;20028;-45